Nordik Express — VCYL — position and weather

sailwx.info

Track history (hours):
 
Tides and Currents Weather Stations Pressure Air Temp Water Temp Dewpoint Dewpoint Depression Visibility Wind Speed Wind Dir Waves Ship Positions

Nordik Express

Last reported at 2018-Apr-19 16:00 UTC. Time now 2018-Apr-19 17:05 UTC.
Position N 46°48' W 071°12'.

Length 69.5 m; beam 13.4 m; draft 5 m.

Type: Passenger vessel. MMSI: 316001952.

Wind from 180 at 6 knots

Barometer 1004.9 mb
Air temperature 4.9 ° C
Dewpoint -1.9 ° C

Date/timePositionNaut miles runAvg speedWind from/ knotsBaromVisibWave heightAir tempDewpointWater temp
2018-Apr-19 16:00N 46°48' W 071°12'0 0.0 180 / 61004.9 4.9-1.9
2018-Apr-19 15:00N 46°48' W 071°12'0 0.0 090 / 51004.6 6.0 1.1
2018-Apr-19 14:00N 46°48' W 071°12'0 0.0 150 / 51004.2 4.8 1.4
2018-Apr-19 13:00N 46°48' W 071°12'0 0.0 160 / 71003.9 3.7 1.7
2018-Apr-19 12:00N 46°48' W 071°12'0 0.0 170 / 81003.6 3.0 1.9
2018-Apr-19 11:00N 46°48' W 071°12'0 0.0 160 / 41003.4 2.6 1.9
2018-Apr-19 10:00N 46°48' W 071°12'0 0.0 170 / 61002.5 1.7 1.6
2018-Apr-19 09:00N 46°48' W 071°12'0 0.0 170 / 61002.3 2.0 2.0
2018-Apr-19 08:00N 46°48' W 071°12'0 0.0 170 / 61002.3 2.5 2.4
2018-Apr-19 07:00N 46°48' W 071°12'0 0.0 170 / 61002.1 2.8 2.7
2018-Apr-19 06:00N 46°48' W 071°12'0 0.0 170 / 61001.5 3.1 3.0
2018-Apr-19 05:00N 46°48' W 071°12'0 0.0 160 / 61001.5 3.6 3.6
2018-Apr-19 04:00N 46°48' W 071°12'0 0.0 170 / 51001.1 3.7 3.7
2018-Apr-19 03:00N 46°48' W 071°12'0 0.0 170 / 51000.9 4.3 4.2
2018-Apr-19 02:00N 46°48' W 071°12'0 0.0 160 / 61000.7 4.4 4.4
2018-Apr-19 01:00N 46°48' W 071°12'0 0.0 170 / 51000.5 4.6 4.6
2018-Apr-19 00:00N 46°48' W 071°12'0 0.0 170 / 71000.0 4.7 4.7
2018-Apr-18 23:00N 46°48' W 071°12'0 0.0 170 / 61000.1 4.3 4.3
2018-Apr-18 22:00N 46°48' W 071°12'0 0.0 170 / 7999.7 6.1 5.1
2018-Apr-18 21:00N 46°48' W 071°12'0 0.0 160 / 9999.5 6.4 4.5
2018-Apr-18 20:00N 46°48' W 071°12'0 0.0 160 / 10999.2 6.0 4.9
2018-Apr-18 19:00N 46°48' W 071°12'0 0.0 160 / 10998.7 5.2 4.9
2018-Apr-18 18:00N 46°48' W 071°12'0 0.0 230 / 9998.2 4.8 4.6
2018-Apr-18 17:00N 46°48' W 071°12'0 0.0 160 / 8997.4 5.4 4.5
2018-Apr-18 16:00N 46°48' W 071°12'0 0.0 160 / 9997.2 3.9 3.8
2018-Apr-18 14:00N 46°48' W 071°12'0 0.0 160 / 8996.8 1.9 2.0
2018-Apr-18 13:00N 46°48' W 071°12'0 0.0 160 / 8996.6 1.5 1.5
2018-Apr-18 12:00N 46°48' W 071°12'0 0.0 160 / 4997.0 1.1 1.2
2018-Apr-18 11:00N 46°48' W 071°12'0 0.0 180 / 4996.7 0.8 0.9
2018-Apr-18 10:00N 46°48' W 071°12'0 0.0 170 / 4996.7 0.8 0.9
2018-Apr-18 09:00N 46°48' W 071°12'0 0.0 170 / 5996.7 1.0 1.1
2018-Apr-18 08:00N 46°48' W 071°12'0 0.0 160 / 4997.0 0.9 1.0
2018-Apr-18 07:00N 46°48' W 071°12'0 0.0 160 / 4997.1 0.9 0.9
2018-Apr-18 06:00N 46°48' W 071°12'0 0.0 170 / 4997.3 0.9 1.0
2018-Apr-18 05:00N 46°48' W 071°12'0 0.0 110 / 1997.4 1.3 1.4
2018-Apr-18 04:00N 46°48' W 071°12'0 0.0 100 / 2997.6 1.0 1.1
2018-Apr-18 03:00N 46°48' W 071°12'0 0.0 120 / 3997.7 0.7 0.9
2018-Apr-18 02:00N 46°48' W 071°12'0 0.0 170 / 2997.6 0.4 0.5
2018-Apr-18 01:00N 46°48' W 071°12'0 0.0 180 / 3997.3 0.2 0.3
2018-Apr-18 00:00N 46°48' W 071°12'0 0.0 090 / 3996.9 1.1 1.2
2018-Apr-17 23:00N 46°48' W 071°12'0 0.0 360 / 6996.8 1.0 1.2
2018-Apr-17 22:00N 46°48' W 071°12'0 0.0 350 / 12996.6 1.3 1.4
2018-Apr-17 21:00N 46°48' W 071°12'0 0.0 360 / 15996.3 1.3 1.4
2018-Apr-17 20:00N 46°48' W 071°12'0 0.0 010 / 14996.8 1.2 1.2
2018-Apr-17 19:00N 46°48' W 071°12'0 0.0 010 / 17997.0 1.5 1.5
2018-Apr-17 18:00N 46°48' W 071°12'0 0.0 360 / 19997.3 1.7 1.7
2018-Apr-17 17:00N 46°48' W 071°12'0 0.0 360 / 16997.1 2.4 2.4
2018-Apr-17 16:00N 46°48' W 071°12'0 0.0 360 / 16998.3 1.5 1.6
2018-Apr-17 15:00N 46°48' W 071°12'0 0.0 360 / 19998.8 1.6 1.6
2018-Apr-17 14:00N 46°48' W 071°12'0 0.0 360 / 17998.9 2.0 2.0
2018-Apr-17 13:00N 46°48' W 071°12'0 0.0 350 / 17999.4 2.2 2.2
2018-Apr-17 12:00N 46°48' W 071°12'0 0.0 350 / 171000.6 1.5 1.5
2018-Apr-17 11:00N 46°48' W 071°12'0 0.0 350 / 161001.4 1.4 1.4
2018-Apr-17 10:00N 46°48' W 071°12'0 0.0 350 / 161001.9 1.5 1.5
2018-Apr-17 09:00N 46°48' W 071°12'0 0.0 350 / 141003.4 2.2 1.7
2018-Apr-17 08:00N 46°48' W 071°12'0 0.0 350 / 161004.5 1.8 1.8
2018-Apr-17 07:00N 46°48' W 071°12'0 0.0 360 / 181005.5 1.3 1.2
2018-Apr-17 06:00N 46°48' W 071°12'0 0.0 350 / 171006.8 1.0 0.9
2018-Apr-17 05:00N 46°48' W 071°12'0 0.0 350 / 191007.4 1.3 1.2
2018-Apr-17 04:00N 46°48' W 071°12'0 0.0 350 / 181008.6 1.3 1.2
2018-Apr-17 03:00N 46°48' W 071°12'0 0.0 350 / 181009.8 1.4 0.6
2018-Apr-17 02:00N 46°48' W 071°12'0 0.0 350 / 181011.9 1.2 0.7
2018-Apr-17 01:00N 46°48' W 071°12'0 0.0 350 / 251012.7 1.0 0.3
2018-Apr-17 00:00N 46°48' W 071°12'0 0.0 350 / 211014.0 0.7 0.6
2018-Apr-16 23:00N 46°48' W 071°12'0 0.0 350 / 191015.3 0.4 0.3
2018-Apr-16 22:00N 46°48' W 071°12'0 0.0 350 / 191016.1 0.5 0.1
2018-Apr-16 21:00N 46°48' W 071°12'0 0.0 350 / 201017.6 0.4-0.2
2018-Apr-16 20:00N 46°48' W 071°12'0 0.0 350 / 221018.5 0.4-0.8
2018-Apr-16 19:00N 46°48' W 071°12'0 0.0 350 / 201020.6 -0.2-0.7
2018-Apr-16 18:00N 46°48' W 071°12'0 0.0 350 / 221022.1 -0.4-1.4
2018-Apr-16 17:00N 46°48' W 071°12'0 0.0 350 / 191023.6 -1.2-1.5
2018-Apr-16 16:00N 46°48' W 071°12'0 0.0 350 / 211025.3 -1.3-2.3
2018-Apr-16 15:00N 46°48' W 071°12'0 0.0 350 / 191026.5 -1.0-4.2
2018-Apr-16 14:00N 46°48' W 071°12'0 0.0 350 / 211027.6 -0.5-5.8
2018-Apr-16 13:00N 46°48' W 071°12'0 0.0 350 / 191028.5 -0.0-7.6
2018-Apr-16 12:00N 46°48' W 071°12'0 0.0 350 / 181029.3 -0.6-8.4
2018-Apr-16 11:00N 46°48' W 071°12'0 0.0 350 / 151029.6 -0.9-8.9
2018-Apr-16 10:00N 46°48' W 071°12'0 0.0 350 / 181030.1 -0.7-10.6
2018-Apr-16 09:00N 46°48' W 071°12'0 0.0 350 / 181030.9 -0.9-11.2
2018-Apr-16 08:00N 46°48' W 071°12'0 0.0 350 / 201032.0 -1.0-11.3
2018-Apr-16 07:00N 46°48' W 071°12'0 0.0 350 / 191033.6 -1.0-10.2
2018-Apr-16 06:00N 46°48' W 071°12'0 0.0 350 / 171033.6 -1.1-9.8
2018-Apr-16 05:00N 46°48' W 071°12'0 0.0 360 / 151035.2 -0.8-9.9
2018-Apr-16 04:00N 46°48' W 071°12'0 0.0 360 / 141035.8 -0.9-8.9
2018-Apr-16 03:00N 46°48' W 071°12'0 0.0 350 / 151036.2 -0.9-10.3
2018-Apr-16 02:00N 46°48' W 071°12'0 0.0 350 / 151036.6 -1.1-10.4
2018-Apr-16 01:00N 46°48' W 071°12'0 0.0 350 / 141036.8 -1.2-11.3
2018-Apr-16 00:00N 46°48' W 071°12'0 0.0 350 / 151036.1 -1.6-11.7
2018-Apr-15 23:00N 46°48' W 071°12'0 0.0 350 / 171035.9 -1.9-12.6
2018-Apr-15 22:00N 46°48' W 071°12'0 0.0 360 / 171035.7 -2.0-13.3
2018-Apr-15 21:00N 46°48' W 071°12'0 0.0 350 / 181036.5 -2.6-11.6
2018-Apr-15 20:00N 46°48' W 071°12'0 0.0 350 / 171037.0 -2.4-10.6
2018-Apr-15 19:00N 46°48' W 071°12'0 0.0 340 / 131038.0 -2.9-10.3
2018-Apr-15 18:00N 46°48' W 071°12'0 0.0 360 / 141038.7 -3.3-10.5
2018-Apr-15 17:00N 46°48' W 071°12'0 0.0 350 / 131038.8 -3.9-11.9
2018-Apr-15 16:00N 46°48' W 071°12'0 0.0 360 / 151039.9 -5.2-12.5
2018-Apr-15 15:00N 46°48' W 071°12'0 0.0 360 / 161039.7 -5.7-12.3
2018-Apr-15 14:00N 46°48' W 071°12'0 0.0 360 / 91039.6 -5.9-13.2
2018-Apr-15 13:00N 46°48' W 071°12'0 0.0 020 / 91039.1 -6.5-14.8
2018-Apr-15 12:00N 46°48' W 071°12'0 0.0 020 / 91038.6 -6.2-15.0
2018-Apr-15 11:00N 46°48' W 071°12'0 0.0 330 / 101038.0 -6.4-16.4
2018-Apr-15 10:00N 46°48' W 071°12'0 0.0 320 / 61037.7 -6.6-16.7
2018-Apr-15 09:00N 46°48' W 071°12'0 0.0 310 / 41036.7 -6.5-17.2
2018-Apr-15 08:00N 46°48' W 071°12'0 0.0 230 / 11036.8 -6.6-18.5
2018-Apr-15 07:00N 46°48' W 071°12'0 0.0 200 / 11036.6 -6.6-19.1
2018-Apr-15 06:00N 46°48' W 071°12'0 0.0 250 / 21035.7 -6.4-19.4
2018-Apr-15 05:00N 46°48' W 071°12'0 0.0 320 / 21035.8 -6.0-19.2
2018-Apr-15 04:00N 46°48' W 071°12'0 0.0 270 / 11034.6 -5.6-19.4
2018-Apr-15 03:00N 46°48' W 071°12'0 0.0 260 / 31034.1 -5.3-19.9
2018-Apr-15 02:00N 46°48' W 071°12'0 0.0 180 / 21033.3 -4.4-20.1
2018-Apr-15 01:00N 46°48' W 071°12'0 0.0 220 / 11032.1 -3.1-20.5
2018-Apr-15 00:00N 46°48' W 071°12'0 0.0 310 / 31030.1 -2.0-20.6
2018-Apr-14 23:00N 46°48' W 071°12'0 0.0 300 / 41029.7 -1.1-21.2
2018-Apr-14 22:00N 46°48' W 071°12'0 0.0 320 / 61029.3 -1.3-14.5
2018-Apr-14 21:00N 46°48' W 071°12'0 0.0 330 / 61028.3 -1.1-13.7
2018-Apr-14 20:00N 46°48' W 071°12'0 0.0 330 / 61027.3 -1.1-13.6
2018-Apr-14 19:00N 46°48' W 071°12'0 0.0 330 / 71026.9 -1.1-12.7
2018-Apr-14 18:00N 46°48' W 071°12'0 0.0 320 / 51026.7 -1.2-14.9
2018-Apr-14 17:00N 46°48' W 071°12'0 0.0 220 / 101026.8 -1.3-21.7
2018-Apr-14 16:00N 46°48' W 071°12'0 0.0 220 / 71026.1 -2.4-21.6
2018-Apr-14 15:00N 46°48' W 071°12'0 0.0 200 / 51026.2 -3.1-21.3
2018-Apr-14 14:00N 46°48' W 071°12'0 0.0 200 / 81026.1 -4.1-22.4
2018-Apr-14 13:00N 46°48' W 071°12'0 0.0 250 / 21025.4 -4.2-20.6
2018-Apr-14 12:00N 46°48' W 071°12'0 0.0 210 / 111024.7 -4.9-20.7
2018-Apr-14 11:00N 46°48' W 071°12'0 0.0 210 / 61023.2 -3.7-18.5
2018-Apr-14 10:00N 46°48' W 071°12'0 0.0 220 / 81021.1 -3.1-16.9
2018-Apr-14 09:00N 46°48' W 071°12'0 0.0 230 / 101019.5 -1.9-16.9
2018-Apr-14 08:00N 46°48' W 071°12'0 0.0 210 / 91018.1 -0.2-14.4
2018-Apr-14 07:00N 46°48' W 071°12'0 0.0 200 / 121016.7 1.2-13.9
2018-Apr-14 06:00N 46°48' W 071°12'0 0.0 230 / 11015.8 3.4-10.8
2018-Apr-14 05:00N 46°48' W 071°12'0 0.0 190 / 31014.5 4.7-3.6
2018-Apr-14 04:00N 46°48' W 071°12'0 0.0 180 / 41014.7 5.4-1.5
2018-Apr-14 03:00N 46°48' W 071°12'0 0.0 170 / 41014.4 5.7-0.5
2018-Apr-14 02:00N 46°48' W 071°12'0 0.0 180 / 41014.2 6.3-0.8
2018-Apr-14 01:00N 46°48' W 071°12'0 0.0 160 / 71014.2 7.7-1.6
2018-Apr-14 00:00N 46°48' W 071°12'0 0.0 150 / 71013.3 8.2-2.4
2018-Apr-13 23:00N 46°48' W 071°12'0 0.0 150 / 61012.7 8.5-2.4
2018-Apr-13 22:00N 46°48' W 071°12'0 0.0 150 / 81012.4 8.9-2.0
2018-Apr-13 21:00N 46°48' W 071°12'0 0.0
2018-Apr-13 20:00N 46°48' W 071°12'0 0.0 150 / 81012.6 10.0-3.2
2018-Apr-13 19:00N 46°48' W 071°12'0 0.0 170 / 81012.7 9.4-2.3
2018-Apr-13 18:00N 46°48' W 071°12'0 0.0 180 / 81012.7 8.7-2.1
2018-Apr-13 17:00N 46°48' W 071°12'0 0.0 160 / 71012.7 9.1 0.4
2018-Apr-13 16:00N 46°48' W 071°12'0 0.0 150 / 41012.4 8.1 2.0
2018-Apr-13 15:00N 46°48' W 071°12'0 0.0 150 / 61012.1 8.0 3.5
2018-Apr-13 14:00N 46°48' W 071°12'0 0.0 180 / 61011.4 5.7 4.2
2018-Apr-13 13:00N 46°48' W 071°12'0 0.0 160 / 61011.2 4.2 4.2
2018-Apr-13 12:00N 46°48' W 071°12'0 0.0 170 / 61010.3 4.0 4.0
2018-Apr-13 11:00N 46°48' W 071°12'0 0.0 170 / 41009.2 3.7 3.7
2018-Apr-13 10:00N 46°48' W 071°12'0 0.0 090 / 21007.9 3.3 3.4
2018-Apr-13 09:00N 46°48' W 071°12'0 0.0 230 / 21006.4 2.4 2.4
2018-Apr-13 08:00N 46°48' W 071°12'0 0.0 320 / 41005.2 2.5 2.6
2018-Apr-13 07:00N 46°48' W 071°12'0 0.0 330 / 51004.7 2.8 2.8
2018-Apr-13 06:00N 46°48' W 071°12'0 0.0 350 / 51005.0 2.7 2.7
2018-Apr-13 05:00N 46°48' W 071°12'0 0.0 330 / 61005.7 2.6 2.7
2018-Apr-13 04:00N 46°48' W 071°12'0 0.0 330 / 61006.4 2.9 2.9
2018-Apr-13 03:00N 46°48' W 071°12'0 0.0 330 / 31007.2 3.8 3.7
2018-Apr-13 02:00N 46°48' W 071°12'0 0.0 070 / 31008.5 5.2 2.1
2018-Apr-13 01:00N 46°48' W 071°12'0 0.0 180 / 31009.1 6.1
2018-Apr-13 00:00N 46°48' W 071°12'0 0.0 360 / 51008.9 5.8-3.0
2018-Apr-12 23:00N 46°48' W 071°12'0 0.0 340 / 31009.2 6.3-3.7
2018-Apr-12 22:00N 46°48' W 071°12'0 0.0 340 / 51010.4 6.4-3.6
2018-Apr-12 21:00N 46°48' W 071°12'0 0.0 210 / 31011.4 7.3-4.2
2018-Apr-12 20:00N 46°48' W 071°12'0 0.0 160 / 41012.5 8.5-4.8
2018-Apr-12 19:00N 46°48' W 071°12'0 0.0 140 / 41013.4 8.8-4.5
2018-Apr-12 18:00N 46°48' W 071°12'0 0.0 060 / 51014.9 7.7-1.8
2018-Apr-12 17:00N 46°48' W 071°12'0 0.0 050 / 31016.2 7.5-0.9
2018-Apr-12 16:00N 46°48' W 071°12'0 0.0 070 / 21017.0 6.6-1.2
2018-Apr-12 15:00N 46°48' W 071°12'0 0.0 080 / 31017.5 5.7-0.0
2018-Apr-12 14:00N 46°48' W 071°12'0 0.0 090 / 41017.6 4.6 0.6
2018-Apr-12 13:00N 46°48' W 071°12'0 0.0 160 / 41017.5 2.5 0.1
2018-Apr-12 12:00N 46°48' W 071°12'0 0.0 190 / 81017.2 1.9 0.3
2018-Apr-12 11:00N 46°48' W 071°12'0 0.0 170 / 61016.3 2.4 1.6
2018-Apr-12 10:00N 46°48' W 071°12'0 0.0 140 / 31015.9 2.8 1.1
2018-Apr-12 09:00N 46°48' W 071°12'0 0.0 110 / 31015.4 2.9 0.4
2018-Apr-12 08:00N 46°48' W 071°12'0 0.0 160 / 41015.2 2.9-0.3
2018-Apr-12 07:00N 46°48' W 071°12'0 0.0 170 / 41015.2 3.0-2.1
2018-Apr-12 06:00N 46°48' W 071°12'0 0.0 190 / 21015.3 3.0-4.4
2018-Apr-12 05:00N 46°48' W 071°12'0 0.0 110 / 31015.4 3.9-5.2
2018-Apr-12 04:00N 46°48' W 071°12'0 0.0 100 / 11015.4 4.0-4.5
2018-Apr-12 03:00N 46°48' W 071°12'0 0.0 160 / 21015.6 5.2-5.2
2018-Apr-12 02:00N 46°48' W 071°12'0 0.0 100 / 21015.7 4.5-4.1
2018-Apr-12 01:00N 46°48' W 071°12'0 0.0 260 / 11015.7 4.5-5.0
2018-Apr-12 00:00N 46°48' W 071°12'0 0.0 200 / 21015.3 4.7-6.2
2018-Apr-11 23:00N 46°48' W 071°12'0 0.0 180 / 51015.2 5.8-6.4
2018-Apr-11 22:00N 46°48' W 071°12'0 0.0 140 / 31015.6 6.6-6.7
2018-Apr-11 21:00N 46°48' W 071°12'0 0.0 170 / 61015.8 6.4-7.9
2018-Apr-11 20:00N 46°48' W 071°12'0 0.0 150 / 51016.2 6.7-7.5
2018-Apr-11 19:00N 46°48' W 071°12'0 0.0 170 / 81016.6 6.0-7.5
2018-Apr-11 18:00N 46°48' W 071°12'0 0.0 080 / 41017.4 5.5-2.7
2018-Apr-11 17:00N 46°48' W 071°12'0 0.0 350 / 41018.4 2.5-1.2
2018-Apr-11 16:00N 46°48' W 071°12'0 0.0 350 / 41019.6 2.7-1.3
2018-Apr-11 15:00N 46°48' W 071°12'0 0.0 010 / 31020.2 2.4-2.2
2018-Apr-11 14:00N 46°48' W 071°12'0 0.0 200 / 11020.5 1.8-1.8
2018-Apr-11 13:00N 46°48' W 071°12'0 0.0 180 / 21020.8 0.2-1.5
2018-Apr-11 12:00N 46°48' W 071°12'0 0.0 120 / 21021.1 0.3-0.7
2018-Apr-11 11:00N 46°48' W 071°12'0 0.0 210 / 31020.7 -0.9-1.1
2018-Apr-11 10:00N 46°48' W 071°12'0 0.0 190 / 41020.5 -1.1-1.5
2018-Apr-11 09:00N 46°48' W 071°12'0 0.0 190 / 31020.5 -1.0-1.6
2018-Apr-11 08:00N 46°48' W 071°12'0 0.0 200 / 31020.5 -1.3-2.7
2018-Apr-11 07:00N 46°48' W 071°12'0 0.0 200 / 31020.5 -1.6-4.7
2018-Apr-11 06:00N 46°48' W 071°12'0 0.0 1020.6 -0.9-5.9
2018-Apr-11 05:00N 46°48' W 071°12'0 0.0 050 / 11020.5 -0.3-4.9
2018-Apr-11 04:00N 46°48' W 071°12'0 0.0 250 / 11020.6 0.1-5.6
2018-Apr-11 03:00N 46°48' W 071°12'0 0.0 080 / 11020.6 0.7-4.8
2018-Apr-11 02:00N 46°48' W 071°12'0 0.0 260 / 11020.6 0.9-8.0
2018-Apr-11 01:00N 46°48' W 071°12'0 0.0 200 / 21020.5 1.3-8.9
2018-Apr-11 00:00N 46°48' W 071°12'0 0.0 200 / 31020.2 1.5-8.9
2018-Apr-10 23:00N 46°48' W 071°12'0 0.0 210 / 41019.8 1.8-9.0
2018-Apr-10 22:00N 46°48' W 071°12'0 0.0 170 / 31019.8 2.5-9.1
2018-Apr-10 20:00N 46°48' W 071°12'0 0.0 190 / 81020.2 2.4-10.6
2018-Apr-10 19:00N 46°48' W 071°12'0 0.0 160 / 71020.7 2.8-10.4
2018-Apr-10 18:00N 46°48' W 071°12'0 0.0 180 / 71021.2 2.3-10.9
2018-Apr-10 17:00N 46°48' W 071°12'0 0.0 170 / 81021.9 2.0-11.2
2018-Apr-10 16:00N 46°48' W 071°12'0 0.0 130 / 31022.6 1.7-9.6
2018-Apr-10 15:00N 46°48' W 071°12'0 0.0 060 / 41023.4 -1.0-10.5
2018-Apr-10 14:00N 46°48' W 071°12'0 0.0 040 / 21024.0 -2.6-10.2
2018-Apr-10 13:00N 46°48' W 071°12'0 0.0 340 / 21024.2 -5.0-12.0
2018-Apr-10 12:00N 46°48' W 071°12'0 0.0 320 / 11024.2 -6.2-12.7
2018-Apr-10 11:00N 46°48' W 071°12'0 0.0 220 / 11023.7 -7.9-12.9
2018-Apr-10 10:00N 46°48' W 071°12'0 0.0 210 / 41023.2 -9.2-13.6
2018-Apr-10 09:00N 46°48' W 071°12'0 0.0 210 / 31022.8 -8.6-13.3
2018-Apr-10 08:00N 46°48' W 071°12'0 0.0 220 / 41022.5 -8.3-13.3
2018-Apr-10 07:00N 46°48' W 071°12'0 0.0 210 / 31022.3 -7.4-12.9
2018-Apr-10 06:00N 46°48' W 071°12'0 0.0 200 / 31022.3 -5.6-12.2
2018-Apr-10 05:00N 46°48' W 071°12'0 0.0 160 / 21022.5 -3.7-12.5
2018-Apr-10 04:00N 46°48' W 071°12'0 0.0 180 / 31022.6 -3.7-12.4
2018-Apr-10 03:00N 46°48' W 071°12'0 0.0 190 / 51022.8 -3.7-12.7
2018-Apr-10 02:00N 46°48' W 071°12'0 0.0 170 / 41022.9 -2.2-12.0
2018-Apr-10 01:00N 46°48' W 071°12'0 0.0 170 / 41022.4 -1.2-12.9
2018-Apr-10 00:00N 46°48' W 071°12'0 0.0 170 / 31021.4 -0.4-15.0
2018-Apr-09 23:00N 46°48' W 071°12'0 0.0 200 / 51020.8 -0.7-15.0
2018-Apr-09 22:00N 46°48' W 071°12'0 0.0 240 / 81020.4 -0.4-14.6
2018-Apr-09 21:00N 46°48' W 071°12'0 0.0 210 / 81020.1 -0.7-15.0
2018-Apr-09 20:00N 46°48' W 071°12'0 0.0 200 / 121019.9 -1.6-15.2
2018-Apr-09 19:00N 46°48' W 071°12'0 0.0 210 / 101020.1 -2.5-15.3
2018-Apr-09 18:00N 46°48' W 071°12'0 0.0 200 / 141020.3 -3.8-15.9
2018-Apr-09 17:00N 46°48' W 071°12'0 0.0 200 / 131020.1 -4.9-16.2
2018-Apr-09 16:00N 46°48' W 071°12'   220 / 91019.9 -5.5-15.9
Track history (hours):
 
Tides and Currents Weather Stations Pressure Air Temp Water Temp Dewpoint Dewpoint Depression Visibility Wind Speed Wind Dir Waves Ship Positions

Nordik Express

Last reported at 2018-Apr-19 16:00 UTC. Time now 2018-Apr-19 17:05 UTC.
Position N 46°48' W 071°12'.

Length 69.5 m; beam 13.4 m; draft 5 m.

Type: Passenger vessel. MMSI: 316001952.

Wind from 180 at 6 knots

Barometer 1004.9 mb
Air temperature 4.9 ° C
Dewpoint -1.9 ° C

Date/timePositionNaut miles runAvg speedWind from/ knotsBaromVisibWave heightAir tempDewpointWater temp
2018-Apr-19 16:00N 46°48' W 071°12'0 0.0 180 / 61004.9 4.9-1.9
2018-Apr-19 15:00N 46°48' W 071°12'0 0.0 090 / 51004.6 6.0 1.1
2018-Apr-19 14:00N 46°48' W 071°12'0 0.0 150 / 51004.2 4.8 1.4
2018-Apr-19 13:00N 46°48' W 071°12'0 0.0 160 / 71003.9 3.7 1.7
2018-Apr-19 12:00N 46°48' W 071°12'0 0.0 170 / 81003.6 3.0 1.9
2018-Apr-19 11:00N 46°48' W 071°12'0 0.0 160 / 41003.4 2.6 1.9
2018-Apr-19 10:00N 46°48' W 071°12'0 0.0 170 / 61002.5 1.7 1.6
2018-Apr-19 09:00N 46°48' W 071°12'0 0.0 170 / 61002.3 2.0 2.0
2018-Apr-19 08:00N 46°48' W 071°12'0 0.0 170 / 61002.3 2.5 2.4
2018-Apr-19 07:00N 46°48' W 071°12'0 0.0 170 / 61002.1 2.8 2.7
2018-Apr-19 06:00N 46°48' W 071°12'0 0.0 170 / 61001.5 3.1 3.0
2018-Apr-19 05:00N 46°48' W 071°12'0 0.0 160 / 61001.5 3.6 3.6
2018-Apr-19 04:00N 46°48' W 071°12'0 0.0 170 / 51001.1 3.7 3.7
2018-Apr-19 03:00N 46°48' W 071°12'0 0.0 170 / 51000.9 4.3 4.2
2018-Apr-19 02:00N 46°48' W 071°12'0 0.0 160 / 61000.7 4.4 4.4
2018-Apr-19 01:00N 46°48' W 071°12'0 0.0 170 / 51000.5 4.6 4.6
2018-Apr-19 00:00N 46°48' W 071°12'0 0.0 170 / 71000.0 4.7 4.7
2018-Apr-18 23:00N 46°48' W 071°12'0 0.0 170 / 61000.1 4.3 4.3
2018-Apr-18 22:00N 46°48' W 071°12'0 0.0 170 / 7999.7 6.1 5.1
2018-Apr-18 21:00N 46°48' W 071°12'0 0.0 160 / 9999.5 6.4 4.5
2018-Apr-18 20:00N 46°48' W 071°12'0 0.0 160 / 10999.2 6.0 4.9
2018-Apr-18 19:00N 46°48' W 071°12'0 0.0 160 / 10998.7 5.2 4.9
2018-Apr-18 18:00N 46°48' W 071°12'0 0.0 230 / 9998.2 4.8 4.6
2018-Apr-18 17:00N 46°48' W 071°12'0 0.0 160 / 8997.4 5.4 4.5
2018-Apr-18 16:00N 46°48' W 071°12'0 0.0 160 / 9997.2 3.9 3.8
2018-Apr-18 14:00N 46°48' W 071°12'0 0.0 160 / 8996.8 1.9 2.0
2018-Apr-18 13:00N 46°48' W 071°12'0 0.0 160 / 8996.6 1.5 1.5
2018-Apr-18 12:00N 46°48' W 071°12'0 0.0 160 / 4997.0 1.1 1.2
2018-Apr-18 11:00N 46°48' W 071°12'0 0.0 180 / 4996.7 0.8 0.9
2018-Apr-18 10:00N 46°48' W 071°12'0 0.0 170 / 4996.7 0.8 0.9
2018-Apr-18 09:00N 46°48' W 071°12'0 0.0 170 / 5996.7 1.0 1.1
2018-Apr-18 08:00N 46°48' W 071°12'0 0.0 160 / 4997.0 0.9 1.0
2018-Apr-18 07:00N 46°48' W 071°12'0 0.0 160 / 4997.1 0.9 0.9
2018-Apr-18 06:00N 46°48' W 071°12'0 0.0 170 / 4997.3 0.9 1.0
2018-Apr-18 05:00N 46°48' W 071°12'0 0.0 110 / 1997.4 1.3 1.4
2018-Apr-18 04:00N 46°48' W 071°12'0 0.0 100 / 2997.6 1.0 1.1
2018-Apr-18 03:00N 46°48' W 071°12'0 0.0 120 / 3997.7 0.7 0.9
2018-Apr-18 02:00N 46°48' W 071°12'0 0.0 170 / 2997.6 0.4 0.5
2018-Apr-18 01:00N 46°48' W 071°12'0 0.0 180 / 3997.3 0.2 0.3
2018-Apr-18 00:00N 46°48' W 071°12'0 0.0 090 / 3996.9 1.1 1.2
2018-Apr-17 23:00N 46°48' W 071°12'0 0.0 360 / 6996.8 1.0 1.2
2018-Apr-17 22:00N 46°48' W 071°12'0 0.0 350 / 12996.6 1.3 1.4
2018-Apr-17 21:00N 46°48' W 071°12'0 0.0 360 / 15996.3 1.3 1.4
2018-Apr-17 20:00N 46°48' W 071°12'0 0.0 010 / 14996.8 1.2 1.2
2018-Apr-17 19:00N 46°48' W 071°12'0 0.0 010 / 17997.0 1.5 1.5
2018-Apr-17 18:00N 46°48' W 071°12'0 0.0 360 / 19997.3 1.7 1.7
2018-Apr-17 17:00N 46°48' W 071°12'0 0.0 360 / 16997.1 2.4 2.4
2018-Apr-17 16:00N 46°48' W 071°12'0 0.0 360 / 16998.3 1.5 1.6
2018-Apr-17 15:00N 46°48' W 071°12'0 0.0 360 / 19998.8 1.6 1.6
2018-Apr-17 14:00N 46°48' W 071°12'0 0.0 360 / 17998.9 2.0 2.0
2018-Apr-17 13:00N 46°48' W 071°12'0 0.0 350 / 17999.4 2.2 2.2
2018-Apr-17 12:00N 46°48' W 071°12'0 0.0 350 / 171000.6 1.5 1.5
2018-Apr-17 11:00N 46°48' W 071°12'0 0.0 350 / 161001.4 1.4 1.4
2018-Apr-17 10:00N 46°48' W 071°12'0 0.0 350 / 161001.9 1.5 1.5
2018-Apr-17 09:00N 46°48' W 071°12'0 0.0 350 / 141003.4 2.2 1.7
2018-Apr-17 08:00N 46°48' W 071°12'0 0.0 350 / 161004.5 1.8 1.8
2018-Apr-17 07:00N 46°48' W 071°12'0 0.0 360 / 181005.5 1.3 1.2
2018-Apr-17 06:00N 46°48' W 071°12'0 0.0 350 / 171006.8 1.0 0.9
2018-Apr-17 05:00N 46°48' W 071°12'0 0.0 350 / 191007.4 1.3 1.2
2018-Apr-17 04:00N 46°48' W 071°12'0 0.0 350 / 181008.6 1.3 1.2
2018-Apr-17 03:00N 46°48' W 071°12'0 0.0 350 / 181009.8 1.4 0.6
2018-Apr-17 02:00N 46°48' W 071°12'0 0.0 350 / 181011.9 1.2 0.7
2018-Apr-17 01:00N 46°48' W 071°12'0 0.0 350 / 251012.7 1.0 0.3
2018-Apr-17 00:00N 46°48' W 071°12'0 0.0 350 / 211014.0 0.7 0.6
2018-Apr-16 23:00N 46°48' W 071°12'0 0.0 350 / 191015.3 0.4 0.3
2018-Apr-16 22:00N 46°48' W 071°12'0 0.0 350 / 191016.1 0.5 0.1
2018-Apr-16 21:00N 46°48' W 071°12'0 0.0 350 / 201017.6 0.4-0.2
2018-Apr-16 20:00N 46°48' W 071°12'0 0.0 350 / 221018.5 0.4-0.8
2018-Apr-16 19:00N 46°48' W 071°12'0 0.0 350 / 201020.6 -0.2-0.7
2018-Apr-16 18:00N 46°48' W 071°12'0 0.0 350 / 221022.1 -0.4-1.4
2018-Apr-16 17:00N 46°48' W 071°12'0 0.0 350 / 191023.6 -1.2-1.5
2018-Apr-16 16:00N 46°48' W 071°12'0 0.0 350 / 211025.3 -1.3-2.3
2018-Apr-16 15:00N 46°48' W 071°12'0 0.0 350 / 191026.5 -1.0-4.2
2018-Apr-16 14:00N 46°48' W 071°12'0 0.0 350 / 211027.6 -0.5-5.8
2018-Apr-16 13:00N 46°48' W 071°12'0 0.0 350 / 191028.5 -0.0-7.6
2018-Apr-16 12:00N 46°48' W 071°12'0 0.0 350 / 181029.3 -0.6-8.4
2018-Apr-16 11:00N 46°48' W 071°12'0 0.0 350 / 151029.6 -0.9-8.9
2018-Apr-16 10:00N 46°48' W 071°12'0 0.0 350 / 181030.1 -0.7-10.6
2018-Apr-16 09:00N 46°48' W 071°12'0 0.0 350 / 181030.9 -0.9-11.2
2018-Apr-16 08:00N 46°48' W 071°12'0 0.0 350 / 201032.0 -1.0-11.3
2018-Apr-16 07:00N 46°48' W 071°12'0 0.0 350 / 191033.6 -1.0-10.2
2018-Apr-16 06:00N 46°48' W 071°12'0 0.0 350 / 171033.6 -1.1-9.8
2018-Apr-16 05:00N 46°48' W 071°12'0 0.0 360 / 151035.2 -0.8-9.9
2018-Apr-16 04:00N 46°48' W 071°12'0 0.0 360 / 141035.8 -0.9-8.9
2018-Apr-16 03:00N 46°48' W 071°12'0 0.0 350 / 151036.2 -0.9-10.3
2018-Apr-16 02:00N 46°48' W 071°12'0 0.0 350 / 151036.6 -1.1-10.4
2018-Apr-16 01:00N 46°48' W 071°12'0 0.0 350 / 141036.8 -1.2-11.3
2018-Apr-16 00:00N 46°48' W 071°12'0 0.0 350 / 151036.1 -1.6-11.7
2018-Apr-15 23:00N 46°48' W 071°12'0 0.0 350 / 171035.9 -1.9-12.6
2018-Apr-15 22:00N 46°48' W 071°12'0 0.0 360 / 171035.7 -2.0-13.3
2018-Apr-15 21:00N 46°48' W 071°12'0 0.0 350 / 181036.5 -2.6-11.6
2018-Apr-15 20:00N 46°48' W 071°12'0 0.0 350 / 171037.0 -2.4-10.6
2018-Apr-15 19:00N 46°48' W 071°12'0 0.0 340 / 131038.0 -2.9-10.3
2018-Apr-15 18:00N 46°48' W 071°12'0 0.0 360 / 141038.7 -3.3-10.5
2018-Apr-15 17:00N 46°48' W 071°12'0 0.0 350 / 131038.8 -3.9-11.9
2018-Apr-15 16:00N 46°48' W 071°12'0 0.0 360 / 151039.9 -5.2-12.5
2018-Apr-15 15:00N 46°48' W 071°12'0 0.0 360 / 161039.7 -5.7-12.3
2018-Apr-15 14:00N 46°48' W 071°12'0 0.0 360 / 91039.6 -5.9-13.2
2018-Apr-15 13:00N 46°48' W 071°12'0 0.0 020 / 91039.1 -6.5-14.8
2018-Apr-15 12:00N 46°48' W 071°12'0 0.0 020 / 91038.6 -6.2-15.0
2018-Apr-15 11:00N 46°48' W 071°12'0 0.0 330 / 101038.0 -6.4-16.4
2018-Apr-15 10:00N 46°48' W 071°12'0 0.0 320 / 61037.7 -6.6-16.7
2018-Apr-15 09:00N 46°48' W 071°12'0 0.0 310 / 41036.7 -6.5-17.2
2018-Apr-15 08:00N 46°48' W 071°12'0 0.0 230 / 11036.8 -6.6-18.5
2018-Apr-15 07:00N 46°48' W 071°12'0 0.0 200 / 11036.6 -6.6-19.1
2018-Apr-15 06:00N 46°48' W 071°12'0 0.0 250 / 21035.7 -6.4-19.4
2018-Apr-15 05:00N 46°48' W 071°12'0 0.0 320 / 21035.8 -6.0-19.2
2018-Apr-15 04:00N 46°48' W 071°12'0 0.0 270 / 11034.6 -5.6-19.4
2018-Apr-15 03:00N 46°48' W 071°12'0 0.0 260 / 31034.1 -5.3-19.9
2018-Apr-15 02:00N 46°48' W 071°12'0 0.0 180 / 21033.3 -4.4-20.1
2018-Apr-15 01:00N 46°48' W 071°12'0 0.0 220 / 11032.1 -3.1-20.5
2018-Apr-15 00:00N 46°48' W 071°12'0 0.0 310 / 31030.1 -2.0-20.6
2018-Apr-14 23:00N 46°48' W 071°12'0 0.0 300 / 41029.7 -1.1-21.2
2018-Apr-14 22:00N 46°48' W 071°12'0 0.0 320 / 61029.3 -1.3-14.5
2018-Apr-14 21:00N 46°48' W 071°12'0 0.0 330 / 61028.3 -1.1-13.7
2018-Apr-14 20:00N 46°48' W 071°12'0 0.0 330 / 61027.3 -1.1-13.6
2018-Apr-14 19:00N 46°48' W 071°12'0 0.0 330 / 71026.9 -1.1-12.7
2018-Apr-14 18:00N 46°48' W 071°12'0 0.0 320 / 51026.7 -1.2-14.9
2018-Apr-14 17:00N 46°48' W 071°12'0 0.0 220 / 101026.8 -1.3-21.7
2018-Apr-14 16:00N 46°48' W 071°12'0 0.0 220 / 71026.1 -2.4-21.6
2018-Apr-14 15:00N 46°48' W 071°12'0 0.0 200 / 51026.2 -3.1-21.3
2018-Apr-14 14:00N 46°48' W 071°12'0 0.0 200 / 81026.1 -4.1-22.4
2018-Apr-14 13:00N 46°48' W 071°12'0 0.0 250 / 21025.4 -4.2-20.6
2018-Apr-14 12:00N 46°48' W 071°12'0 0.0 210 / 111024.7 -4.9-20.7
2018-Apr-14 11:00N 46°48' W 071°12'0 0.0 210 / 61023.2 -3.7-18.5
2018-Apr-14 10:00N 46°48' W 071°12'0 0.0 220 / 81021.1 -3.1-16.9
2018-Apr-14 09:00N 46°48' W 071°12'0 0.0 230 / 101019.5 -1.9-16.9
2018-Apr-14 08:00N 46°48' W 071°12'0 0.0 210 / 91018.1 -0.2-14.4
2018-Apr-14 07:00N 46°48' W 071°12'0 0.0 200 / 121016.7 1.2-13.9
2018-Apr-14 06:00N 46°48' W 071°12'0 0.0 230 / 11015.8 3.4-10.8
2018-Apr-14 05:00N 46°48' W 071°12'0 0.0 190 / 31014.5 4.7-3.6
2018-Apr-14 04:00N 46°48' W 071°12'0 0.0 180 / 41014.7 5.4-1.5
2018-Apr-14 03:00N 46°48' W 071°12'0 0.0 170 / 41014.4 5.7-0.5
2018-Apr-14 02:00N 46°48' W 071°12'0 0.0 180 / 41014.2 6.3-0.8
2018-Apr-14 01:00N 46°48' W 071°12'0 0.0 160 / 71014.2 7.7-1.6
2018-Apr-14 00:00N 46°48' W 071°12'0 0.0 150 / 71013.3 8.2-2.4
2018-Apr-13 23:00N 46°48' W 071°12'0 0.0 150 / 61012.7 8.5-2.4
2018-Apr-13 22:00N 46°48' W 071°12'0 0.0 150 / 81012.4 8.9-2.0
2018-Apr-13 21:00N 46°48' W 071°12'0 0.0
2018-Apr-13 20:00N 46°48' W 071°12'0 0.0 150 / 81012.6 10.0-3.2
2018-Apr-13 19:00N 46°48' W 071°12'0 0.0 170 / 81012.7 9.4-2.3
2018-Apr-13 18:00N 46°48' W 071°12'0 0.0 180 / 81012.7 8.7-2.1
2018-Apr-13 17:00N 46°48' W 071°12'0 0.0 160 / 71012.7 9.1 0.4
2018-Apr-13 16:00N 46°48' W 071°12'0 0.0 150 / 41012.4 8.1 2.0
2018-Apr-13 15:00N 46°48' W 071°12'0 0.0 150 / 61012.1 8.0 3.5
2018-Apr-13 14:00N 46°48' W 071°12'0 0.0 180 / 61011.4 5.7 4.2
2018-Apr-13 13:00N 46°48' W 071°12'0 0.0 160 / 61011.2 4.2 4.2
2018-Apr-13 12:00N 46°48' W 071°12'0 0.0 170 / 61010.3 4.0 4.0
2018-Apr-13 11:00N 46°48' W 071°12'0 0.0 170 / 41009.2 3.7 3.7
2018-Apr-13 10:00N 46°48' W 071°12'0 0.0 090 / 21007.9 3.3 3.4
2018-Apr-13 09:00N 46°48' W 071°12'0 0.0 230 / 21006.4 2.4 2.4
2018-Apr-13 08:00N 46°48' W 071°12'0 0.0 320 / 41005.2 2.5 2.6
2018-Apr-13 07:00N 46°48' W 071°12'0 0.0 330 / 51004.7 2.8 2.8
2018-Apr-13 06:00N 46°48' W 071°12'0 0.0 350 / 51005.0 2.7 2.7
2018-Apr-13 05:00N 46°48' W 071°12'0 0.0 330 / 61005.7 2.6 2.7
2018-Apr-13 04:00N 46°48' W 071°12'0 0.0 330 / 61006.4 2.9 2.9
2018-Apr-13 03:00N 46°48' W 071°12'0 0.0 330 / 31007.2 3.8 3.7
2018-Apr-13 02:00N 46°48' W 071°12'0 0.0 070 / 31008.5 5.2 2.1
2018-Apr-13 01:00N 46°48' W 071°12'0 0.0 180 / 31009.1 6.1
2018-Apr-13 00:00N 46°48' W 071°12'0 0.0 360 / 51008.9 5.8-3.0
2018-Apr-12 23:00N 46°48' W 071°12'0 0.0 340 / 31009.2 6.3-3.7
2018-Apr-12 22:00N 46°48' W 071°12'0 0.0 340 / 51010.4 6.4-3.6
2018-Apr-12 21:00N 46°48' W 071°12'0 0.0 210 / 31011.4 7.3-4.2
2018-Apr-12 20:00N 46°48' W 071°12'0 0.0 160 / 41012.5 8.5-4.8
2018-Apr-12 19:00N 46°48' W 071°12'0 0.0 140 / 41013.4 8.8-4.5
2018-Apr-12 18:00N 46°48' W 071°12'0 0.0 060 / 51014.9 7.7-1.8
2018-Apr-12 17:00N 46°48' W 071°12'0 0.0 050 / 31016.2 7.5-0.9
2018-Apr-12 16:00N 46°48' W 071°12'0 0.0 070 / 21017.0 6.6-1.2
2018-Apr-12 15:00N 46°48' W 071°12'0 0.0 080 / 31017.5 5.7-0.0
2018-Apr-12 14:00N 46°48' W 071°12'0 0.0 090 / 41017.6 4.6 0.6
2018-Apr-12 13:00N 46°48' W 071°12'0 0.0 160 / 41017.5 2.5 0.1
2018-Apr-12 12:00N 46°48' W 071°12'0 0.0 190 / 81017.2 1.9 0.3
2018-Apr-12 11:00N 46°48' W 071°12'0 0.0 170 / 61016.3 2.4 1.6
2018-Apr-12 10:00N 46°48' W 071°12'0 0.0 140 / 31015.9 2.8 1.1
2018-Apr-12 09:00N 46°48' W 071°12'0 0.0 110 / 31015.4 2.9 0.4
2018-Apr-12 08:00N 46°48' W 071°12'0 0.0 160 / 41015.2 2.9-0.3
2018-Apr-12 07:00N 46°48' W 071°12'0 0.0 170 / 41015.2 3.0-2.1
2018-Apr-12 06:00N 46°48' W 071°12'0 0.0 190 / 21015.3 3.0-4.4
2018-Apr-12 05:00N 46°48' W 071°12'0 0.0 110 / 31015.4 3.9-5.2
2018-Apr-12 04:00N 46°48' W 071°12'0 0.0 100 / 11015.4 4.0-4.5
2018-Apr-12 03:00N 46°48' W 071°12'0 0.0 160 / 21015.6 5.2-5.2
2018-Apr-12 02:00N 46°48' W 071°12'0 0.0 100 / 21015.7 4.5-4.1
2018-Apr-12 01:00N 46°48' W 071°12'0 0.0 260 / 11015.7 4.5-5.0
2018-Apr-12 00:00N 46°48' W 071°12'0 0.0 200 / 21015.3 4.7-6.2
2018-Apr-11 23:00N 46°48' W 071°12'0 0.0 180 / 51015.2 5.8-6.4
2018-Apr-11 22:00N 46°48' W 071°12'0 0.0 140 / 31015.6 6.6-6.7
2018-Apr-11 21:00N 46°48' W 071°12'0 0.0 170 / 61015.8 6.4-7.9
2018-Apr-11 20:00N 46°48' W 071°12'0 0.0 150 / 51016.2 6.7-7.5
2018-Apr-11 19:00N 46°48' W 071°12'0 0.0 170 / 81016.6 6.0-7.5
2018-Apr-11 18:00N 46°48' W 071°12'0 0.0 080 / 41017.4 5.5-2.7
2018-Apr-11 17:00N 46°48' W 071°12'0 0.0 350 / 41018.4 2.5-1.2
2018-Apr-11 16:00N 46°48' W 071°12'0 0.0 350 / 41019.6 2.7-1.3
2018-Apr-11 15:00N 46°48' W 071°12'0 0.0 010 / 31020.2 2.4-2.2
2018-Apr-11 14:00N 46°48' W 071°12'0 0.0 200 / 11020.5 1.8-1.8
2018-Apr-11 13:00N 46°48' W 071°12'0 0.0 180 / 21020.8 0.2-1.5
2018-Apr-11 12:00N 46°48' W 071°12'0 0.0 120 / 21021.1 0.3-0.7
2018-Apr-11 11:00N 46°48' W 071°12'0 0.0 210 / 31020.7 -0.9-1.1
2018-Apr-11 10:00N 46°48' W 071°12'0 0.0 190 / 41020.5 -1.1-1.5
2018-Apr-11 09:00N 46°48' W 071°12'0 0.0 190 / 31020.5 -1.0-1.6
2018-Apr-11 08:00N 46°48' W 071°12'0 0.0 200 / 31020.5 -1.3-2.7
2018-Apr-11 07:00N 46°48' W 071°12'0 0.0 200 / 31020.5 -1.6-4.7
2018-Apr-11 06:00N 46°48' W 071°12'0 0.0 1020.6 -0.9-5.9
2018-Apr-11 05:00N 46°48' W 071°12'0 0.0 050 / 11020.5 -0.3-4.9
2018-Apr-11 04:00N 46°48' W 071°12'0 0.0 250 / 11020.6 0.1-5.6
2018-Apr-11 03:00N 46°48' W 071°12'0 0.0 080 / 11020.6 0.7-4.8
2018-Apr-11 02:00N 46°48' W 071°12'0 0.0 260 / 11020.6 0.9-8.0
2018-Apr-11 01:00N 46°48' W 071°12'0 0.0 200 / 21020.5 1.3-8.9
2018-Apr-11 00:00N 46°48' W 071°12'0 0.0 200 / 31020.2 1.5-8.9
2018-Apr-10 23:00N 46°48' W 071°12'0 0.0 210 / 41019.8 1.8-9.0
2018-Apr-10 22:00N 46°48' W 071°12'0 0.0 170 / 31019.8 2.5-9.1
2018-Apr-10 20:00N 46°48' W 071°12'0 0.0 190 / 81020.2 2.4-10.6
2018-Apr-10 19:00N 46°48' W 071°12'0 0.0 160 / 71020.7 2.8-10.4
2018-Apr-10 18:00N 46°48' W 071°12'0 0.0 180 / 71021.2 2.3-10.9
2018-Apr-10 17:00N 46°48' W 071°12'0 0.0 170 / 81021.9 2.0-11.2
2018-Apr-10 16:00N 46°48' W 071°12'0 0.0 130 / 31022.6 1.7-9.6
2018-Apr-10 15:00N 46°48' W 071°12'0 0.0 060 / 41023.4 -1.0-10.5
2018-Apr-10 14:00N 46°48' W 071°12'0 0.0 040 / 21024.0 -2.6-10.2
2018-Apr-10 13:00N 46°48' W 071°12'0 0.0 340 / 21024.2 -5.0-12.0
2018-Apr-10 12:00N 46°48' W 071°12'0 0.0 320 / 11024.2 -6.2-12.7
2018-Apr-10 11:00N 46°48' W 071°12'0 0.0 220 / 11023.7 -7.9-12.9
2018-Apr-10 10:00N 46°48' W 071°12'0 0.0 210 / 41023.2 -9.2-13.6
2018-Apr-10 09:00N 46°48' W 071°12'0 0.0 210 / 31022.8 -8.6-13.3
2018-Apr-10 08:00N 46°48' W 071°12'0 0.0 220 / 41022.5 -8.3-13.3
2018-Apr-10 07:00N 46°48' W 071°12'0 0.0 210 / 31022.3 -7.4-12.9
2018-Apr-10 06:00N 46°48' W 071°12'0 0.0 200 / 31022.3 -5.6-12.2
2018-Apr-10 05:00N 46°48' W 071°12'0 0.0 160 / 21022.5 -3.7-12.5
2018-Apr-10 04:00N 46°48' W 071°12'0 0.0 180 / 31022.6 -3.7-12.4
2018-Apr-10 03:00N 46°48' W 071°12'0 0.0 190 / 51022.8 -3.7-12.7
2018-Apr-10 02:00N 46°48' W 071°12'0 0.0 170 / 41022.9 -2.2-12.0
2018-Apr-10 01:00N 46°48' W 071°12'0 0.0 170 / 41022.4 -1.2-12.9
2018-Apr-10 00:00N 46°48' W 071°12'0 0.0 170 / 31021.4 -0.4-15.0
2018-Apr-09 23:00N 46°48' W 071°12'0 0.0 200 / 51020.8 -0.7-15.0
2018-Apr-09 22:00N 46°48' W 071°12'0 0.0 240 / 81020.4 -0.4-14.6
2018-Apr-09 21:00N 46°48' W 071°12'0 0.0 210 / 81020.1 -0.7-15.0
2018-Apr-09 20:00N 46°48' W 071°12'0 0.0 200 / 121019.9 -1.6-15.2
2018-Apr-09 19:00N 46°48' W 071°12'0 0.0 210 / 101020.1 -2.5-15.3
2018-Apr-09 18:00N 46°48' W 071°12'0 0.0 200 / 141020.3 -3.8-15.9
2018-Apr-09 17:00N 46°48' W 071°12'0 0.0 200 / 131020.1 -4.9-16.2
2018-Apr-09 16:00N 46°48' W 071°12'   220 / 91019.9 -5.5-15.9

Dump ship's entire track history